Time;durP1;ratioP1;P1;durP2;ratioP2;P2;SDS_P1;SDS_P2;PMS_P1;PMS_P2;Temp;Humidity;BMP_temperature;BMP_pressure;BME280_temperature;BME280_humidity;BME280_pressure;Samples;Min_cycle;Max_cycle;Signal;HPM_P1;HPM_P2
2021/08/05 00:01:45;;;;;;;15.13;7.35;;;;;;;12.43;88.08;100130.81;5090058;28;20035;-78
2021/08/05 00:04:11;;;;;;;14.90;7.82;;;;;;;12.31;88.17;100103.97;5057574;28;20040;-80
2021/08/05 00:06:37;;;;;;;16.85;7.72;;;;;;;12.34;87.72;100122.19;5072846;28;20043;-79
2021/08/05 00:09:03;;;;;;;17.90;8.07;;;;;;;12.33;87.62;100120.47;5057131;28;20416;-79
2021/08/05 00:11:29;;;;;;;15.73;7.75;;;;;;;12.20;87.53;100104.09;5073360;28;20042;-80
2021/08/05 00:13:55;;;;;;;17.17;7.90;;;;;;;12.30;87.83;100122.25;5039992;28;20039;-78
2021/08/05 00:16:22;;;;;;;16.10;7.93;;;;;;;12.22;87.93;100111.91;5056795;28;20463;-80
2021/08/05 00:18:48;;;;;;;17.00;7.70;;;;;;;12.35;87.89;100142.19;5090008;28;20044;-81
2021/08/05 00:21:18;;;;;;;16.88;6.85;;;;;;;12.24;88.00;100125.81;5072427;28;20058;-78
2021/08/05 00:23:46;;;;;;;16.83;7.35;;;;;;;12.33;87.81;100149.19;5072145;28;20062;-78
2021/08/05 00:26:12;;;;;;;12.73;6.57;;;;;;;12.28;87.87;100137.91;5072113;28;20039;-80
2021/08/05 00:28:42;;;;;;;15.25;7.38;;;;;;;12.16;87.64;100114.56;5091371;28;20035;-79
2021/08/05 00:31:09;;;;;;;12.35;7.80;;;;;;;12.33;87.90;100138.75;5073573;28;20051;-79
2021/08/05 00:33:35;;;;;;;15.05;7.95;;;;;;;12.29;87.76;100129.22;5055278;28;20051;-80
2021/08/05 00:36:01;;;;;;;16.58;7.78;;;;;;;12.31;87.93;100132.66;5072650;28;20062;-78
2021/08/05 00:38:27;;;;;;;16.15;7.63;;;;;;;12.39;87.84;100145.63;5090039;28;20051;-81
2021/08/05 00:40:53;;;;;;;14.43;7.80;;;;;;;12.36;87.84;100135.22;5055363;28;20449;-81
2021/08/05 00:43:20;;;;;;;17.88;7.65;;;;;;;12.38;88.21;100140.44;5071772;28;20040;-79
2021/08/05 00:45:47;;;;;;;17.50;7.05;;;;;;;12.22;87.85;100111.91;5055418;28;20036;-77
2021/08/05 00:48:13;;;;;;;15.30;7.53;;;;;;;12.34;87.77;100140.47;5056855;28;20519;-78
2021/08/05 00:50:39;;;;;;;10.43;6.32;;;;;;;12.19;88.08;100118.00;5078828;28;20028;-78
2021/08/05 00:53:05;;;;;;;12.48;7.05;;;;;;;12.29;87.85;100142.25;5086523;28;20078;-78
2021/08/05 00:55:31;;;;;;;15.60;6.82;;;;;;;12.26;87.85;100142.28;5092686;28;20055;-78
2021/08/05 00:57:58;;;;;;;12.73;6.65;;;;;;;12.23;87.90;100134.50;5089790;28;20283;-80
2021/08/05 01:00:25;;;;;;;15.25;6.85;;;;;;;12.20;88.11;100135.38;5090878;28;20047;-81
2021/08/05 01:03:11;;;;;;;10.88;6.18;;;;;;;12.14;88.02;100131.97;5083245;28;20040;-78
2021/08/05 01:05:40;;;;;;;18.77;7.28;;;;;;;12.11;87.79;100129.41;5099772;28;20028;-79
2021/08/05 01:08:10;;;;;;;15.13;6.55;;;;;;;12.13;88.03;100133.75;5100912;28;20053;-76
2021/08/05 01:10:52;;;;;;;15.00;6.30;;;;;;;12.17;88.05;100140.63;5102170;28;20130;-80
2021/08/05 01:13:28;;;;;;;15.35;7.20;;;;;;;12.15;87.83;100133.72;5100955;28;20035;-76
2021/08/05 01:15:56;;;;;;;12.07;6.78;;;;;;;12.17;88.03;100134.56;5081953;28;20036;-81
2021/08/05 01:18:42;;;;;;;14.23;6.97;;;;;;;12.13;87.73;100132.88;5101369;28;20031;-77
2021/08/05 01:21:28;;;;;;;11.38;6.53;;;;;;;12.14;87.99;100131.97;5100974;28;20100;-78
2021/08/05 01:24:04;;;;;;;13.20;7.43;;;;;;;12.10;88.01;100132.88;5091356;28;20122;-78
2021/08/05 01:26:29;;;;;;;20.98;7.53;;;;;;;12.04;87.51;100128.59;5099172;28;20086;-78
2021/08/05 01:28:56;;;;;;;13.88;7.13;;;;;;;12.00;87.66;100145.16;5086533;28;20062;-78
2021/08/05 01:31:23;;;;;;;16.73;7.25;;;;;;;11.94;87.51;100148.66;5084324;28;20039;-77
2021/08/05 01:33:50;;;;;;;14.88;7.30;;;;;;;11.96;88.00;100144.28;5090637;28;20047;-79
2021/08/05 01:36:18;;;;;;;16.77;7.00;;;;;;;11.92;87.83;100145.19;5104980;28;20047;-79
2021/08/05 01:38:47;;;;;;;13.63;7.30;;;;;;;11.84;88.01;100131.34;5106503;28;20043;-77
2021/08/05 01:41:15;;;;;;;17.45;7.30;;;;;;;11.93;87.58;100151.25;5107589;28;20098;-78
2021/08/05 01:43:44;;;;;;;18.33;7.75;;;;;;;11.99;88.01;100165.16;5092477;28;20095;-78
2021/08/05 01:46:11;;;;;;;18.25;7.28;;;;;;;11.92;87.73;100150.41;5097786;28;20031;-77
2021/08/05 01:48:38;;;;;;;16.50;7.90;;;;;;;11.97;88.10;100152.97;5116953;28;20062;-77
2021/08/05 01:51:04;;;;;;;17.13;7.57;;;;;;;12.00;87.91;100158.19;5116247;28;20028;-78
2021/08/05 01:53:32;;;;;;;17.88;7.05;;;;;;;11.94;87.72;100153.00;5078189;28;20028;-76
2021/08/05 01:55:58;;;;;;;15.65;7.75;;;;;;;11.92;88.11;100145.19;5087998;28;20044;-75
2021/08/05 01:58:25;;;;;;;16.48;7.35;;;;;;;11.95;88.01;100149.50;5076488;28;20078;-78
2021/08/05 02:00:51;;;;;;;18.60;8.38;;;;;;;11.94;88.07;100135.63;5090681;28;20535;-78
2021/08/05 02:03:17;;;;;;;18.35;7.97;;;;;;;12.05;87.79;100167.69;5057357;28;20055;-79
2021/08/05 02:05:56;;;;;;;18.92;9.57;;;;;;;12.02;87.64;100164.25;5072958;28;20047;-77
2021/08/05 02:08:37;;;;;;;20.40;9.93;;;;;;;11.87;87.93;100137.41;5072920;28;20046;-80
2021/08/05 02:11:05;;;;;;;22.38;9.13;;;;;;;11.97;88.23;100152.97;5093883;28;20048;-77
2021/08/05 02:13:40;;;;;;;20.65;8.82;;;;;;;11.99;88.12;100144.31;5076271;28;20583;-80
2021/08/05 02:16:10;;;;;;;15.88;8.02;;;;;;;12.14;87.93;100164.13;5094851;28;20036;-78
2021/08/05 02:18:39;;;;;;;15.65;8.10;;;;;;;12.09;87.93;100146.81;5075423;28;20036;-81
2021/08/05 02:21:05;;;;;;;14.48;7.43;;;;;;;12.08;87.86;100159.00;5074492;28;20676;-78
2021/08/05 02:23:34;;;;;;;18.73;8.07;;;;;;;12.16;87.74;100170.22;5092217;28;20039;-80
2021/08/05 02:26:00;;;;;;;18.95;8.23;;;;;;;12.15;87.98;100172.84;5075243;28;20043;-79
2021/08/05 02:28:28;;;;;;;20.20;8.50;;;;;;;12.25;88.13;100176.22;5104982;28;20040;-79
2021/08/05 02:30:56;;;;;;;16.08;8.18;;;;;;;12.20;88.29;100164.09;5094569;28;20039;-81
2021/08/05 02:33:25;;;;;;;21.88;9.35;;;;;;;12.32;87.92;100173.53;5112725;28;20392;-79
2021/08/05 02:35:52;;;;;;;17.60;8.52;;;;;;;12.33;87.62;100183.09;5078982;28;20036;-79
2021/08/05 02:38:19;;;;;;;15.38;8.27;;;;;;;12.25;88.00;100164.03;5114456;28;20113;-78
2021/08/05 02:40:48;;;;;;;22.23;9.45;;;;;;;12.32;87.89;100159.63;5095509;28;20092;-77
2021/08/05 02:43:15;;;;;;;17.85;8.85;;;;;;;12.41;87.93;100169.97;5095914;28;20039;-79
2021/08/05 02:45:43;;;;;;;20.52;8.55;;;;;;;12.43;88.05;100170.81;5113995;28;20038;-78
2021/08/05 02:48:11;;;;;;;20.38;8.43;;;;;;;12.38;88.09;100153.47;5113701;28;20039;-77
2021/08/05 02:50:38;;;;;;;17.23;8.40;;;;;;;12.46;87.98;100162.09;5094120;28;20050;-80
2021/08/05 02:53:05;;;;;;;21.50;8.77;;;;;;;12.48;87.85;100166.41;5099363;28;20040;-77
2021/08/05 02:55:32;;;;;;;18.25;8.70;;;;;;;12.54;87.70;100170.69;5118053;28;20058;-79
2021/08/05 02:58:00;;;;;;;17.40;8.38;;;;;;;12.58;88.08;100161.97;5106333;28;20040;-77
2021/08/05 03:00:26;;;;;;;16.10;8.65;;;;;;;12.77;88.08;100174.78;5084304;28;20035;-77
2021/08/05 03:02:52;;;;;;;24.00;9.05;;;;;;;12.90;87.93;100184.22;5078624;28;20043;-78
2021/08/05 03:05:18;;;;;;;19.98;8.60;;;;;;;12.99;88.02;100179.75;5096045;28;20032;-80
2021/08/05 03:07:45;;;;;;;17.98;8.77;;;;;;;13.01;87.67;100170.16;5096247;28;20036;-80
2021/08/05 03:10:16;;;;;;;14.82;7.85;;;;;;;13.18;88.06;100176.00;5095418;28;20090;-81
2021/08/05 03:12:42;;;;;;;14.25;7.55;;;;;;;13.25;87.83;100175.03;5113228;28;20116;-80
2021/08/05 03:15:09;;;;;;;17.15;7.38;;;;;;;13.24;87.79;100162.88;5113319;28;20096;-80
2021/08/05 03:17:35;;;;;;;16.50;8.40;;;;;;;13.39;87.67;100164.41;5078843;28;20452;-77
2021/08/05 03:20:02;;;;;;;19.90;8.63;;;;;;;13.44;87.84;100160.91;5078260;28;20047;-79
2021/08/05 03:22:28;;;;;;;16.65;7.85;;;;;;;13.53;87.96;100159.00;5113565;28;20042;-78
2021/08/05 03:24:54;;;;;;;18.20;8.35;;;;;;;13.65;87.77;100165.78;5078259;28;20186;-79
2021/08/05 03:27:20;;;;;;;26.73;8.65;;;;;;;13.68;87.93;100150.03;5113191;28;20577;-80
2021/08/05 03:29:45;;;;;;;15.73;8.75;;;;;;;13.92;87.87;100163.59;5092490;28;20051;-79
2021/08/05 03:32:11;;;;;;;18.33;8.77;;;;;;;14.07;87.93;100169.47;5092729;28;20063;-79
2021/08/05 03:34:37;;;;;;;24.25;9.05;;;;;;;14.11;87.78;100148.44;5110948;28;20393;-80
2021/08/05 03:37:03;;;;;;;18.30;8.52;;;;;;;14.18;87.72;100136.09;5110383;28;20031;-78
2021/08/05 03:39:28;;;;;;;15.77;8.48;;;;;;;14.35;87.80;100143.66;5110841;28;20043;-79
2021/08/05 03:41:54;;;;;;;20.67;8.20;;;;;;;14.45;87.82;100139.94;5092665;28;20576;-81
2021/08/05 03:44:20;;;;;;;18.63;9.13;;;;;;;14.71;87.79;100162.16;5075328;28;20164;-81
2021/08/05 03:46:46;;;;;;;15.88;8.75;;;;;;;14.70;87.57;100146.50;5075382;28;20071;-79
2021/08/05 03:49:11;;;;;;;17.08;8.55;;;;;;;14.78;87.56;100147.22;5110423;28;20046;-79
2021/08/05 03:51:37;;;;;;;15.63;8.48;;;;;;;14.96;87.59;100160.81;5093218;28;20126;-80
2021/08/05 03:55:52;;;;;;;14.57;7.97;;;;;;;15.21;87.54;100166.38;5066764;28;20413;-82
2021/08/05 03:58:19;;;;;;;19.52;8.85;;;;;;;15.32;87.45;100164.41;5066940;28;20484;-80
2021/08/05 04:00:44;;;;;;;17.88;8.60;;;;;;;15.38;86.80;100162.50;5075269;28;20139;-79
2021/08/05 04:03:10;;;;;;;22.77;8.90;;;;;;;15.19;87.30;100108.75;5079519;28;20079;-80
2021/08/05 04:05:36;;;;;;;21.02;8.90;;;;;;;15.69;87.56;100157.41;5077177;28;20089;-79
2021/08/05 04:08:02;;;;;;;19.95;9.10;;;;;;;15.98;87.29;100160.25;5074351;28;20467;-80
2021/08/05 04:10:29;;;;;;;18.67;8.85;;;;;;;16.10;87.06;100159.91;5066508;28;20040;-80
2021/08/05 04:12:55;;;;;;;19.15;9.20;;;;;;;16.23;87.20;100150.81;5066801;28;20055;-81
2021/08/05 04:15:21;;;;;;;14.13;8.48;;;;;;;16.31;86.83;100136.63;5072546;28;20033;-80
2021/08/05 04:17:47;;;;;;;16.90;8.50;;;;;;;16.58;86.83;100136.75;5065459;28;20043;-77
2021/08/05 04:20:13;;;;;;;16.25;9.07;;;;;;;16.70;86.76;100142.53;5065503;28;20055;-79
2021/08/05 04:22:39;;;;;;;12.57;8.45;;;;;;;16.90;86.57;100141.06;5066402;28;20127;-82
2021/08/05 04:25:07;;;;;;;13.65;7.75;;;;;;;17.03;86.48;100144.22;5048206;28;20123;-79
2021/08/05 04:27:33;;;;;;;15.32;8.18;;;;;;;17.14;86.27;100136.88;5061039;28;20041;-78
2021/08/05 04:29:59;;;;;;;19.75;8.60;;;;;;;17.34;86.09;100148.53;5045270;28;20509;-79
2021/08/05 04:32:25;;;;;;;17.08;8.50;;;;;;;17.50;86.00;100142.81;5046231;28;20056;-79
2021/08/05 04:34:51;;;;;;;18.48;8.77;;;;;;;17.63;85.27;100143.28;5027916;28;20085;-81
2021/08/05 04:37:18;;;;;;;14.18;8.43;;;;;;;17.69;85.74;100137.78;5046663;28;20289;-80
2021/08/05 04:39:44;;;;;;;15.27;8.88;;;;;;;17.80;85.09;100125.16;5044841;28;20037;-78
2021/08/05 04:42:10;;;;;;;12.57;8.70;;;;;;;18.02;85.10;100135.81;5047316;28;20382;-79
2021/08/05 04:44:36;;;;;;;13.23;8.05;;;;;;;18.12;84.79;100130.25;5046290;28;20094;-78
2021/08/05 04:47:02;;;;;;;14.85;8.30;;;;;;;18.18;84.48;100132.66;5045090;28;20048;-78
2021/08/05 04:49:28;;;;;;;11.52;6.75;;;;;;;18.19;83.74;100137.03;5044766;28;20045;-82
2021/08/05 04:51:54;;;;;;;12.05;8.02;;;;;;;18.16;83.92;100131.88;5045330;28;20135;-80
2021/08/05 04:54:21;;;;;;;13.80;8.30;;;;;;;18.28;84.12;100135.84;5048634;28;20053;-80
2021/08/05 04:56:47;;;;;;;14.00;8.60;;;;;;;18.15;82.84;100115.19;5045190;28;20148;-81
2021/08/05 04:59:12;;;;;;;17.45;9.23;;;;;;;18.28;83.79;100114.75;5068918;28;20033;-78
2021/08/05 05:01:38;;;;;;;18.35;9.90;;;;;;;18.55;83.54;100126.06;5053185;28;20099;-80
2021/08/05 05:04:04;;;;;;;23.85;11.07;;;;;;;18.81;83.54;100129.50;5046261;28;20072;-82
2021/08/05 05:06:30;;;;;;;16.27;9.45;;;;;;;18.83;82.78;100117.13;5037923;28;20064;-80
2021/08/05 05:08:56;;;;;;;15.15;8.38;;;;;;;18.99;82.92;100127.97;5031559;28;20526;-78
2021/08/05 05:11:22;;;;;;;14.13;7.65;;;;;;;19.14;82.22;100123.88;5031356;28;20560;-80
2021/08/05 05:13:48;;;;;;;14.48;7.80;;;;;;;19.39;82.44;100147.50;5031213;28;20037;-80
2021/08/05 05:16:15;;;;;;;19.38;7.40;;;;;;;19.61;82.33;100145.75;5014199;28;20041;-77
2021/08/05 05:18:41;;;;;;;11.88;6.85;;;;;;;19.81;82.28;100145.78;5030918;28;20049;-79
2021/08/05 05:21:09;;;;;;;13.30;6.88;;;;;;;19.89;81.30;100142.88;5031104;28;20421;-78
2021/08/05 05:23:36;;;;;;;11.55;5.13;;;;;;;19.88;80.57;100148.22;5033333;28;20512;-79
2021/08/05 05:26:03;;;;;;;12.60;4.90;;;;;;;19.90;80.06;100146.38;5031097;28;20041;-79
2021/08/05 05:28:30;;;;;;;8.88;4.50;;;;;;;20.05;80.11;100134.31;5014690;28;20037;-79
2021/08/05 05:30:57;;;;;;;8.60;4.38;;;;;;;20.37;80.12;100117.03;5015576;28;20042;-81
2021/08/05 05:33:23;;;;;;;9.95;4.90;;;;;;;20.71;80.04;100123.44;5014579;28;20467;-80
2021/08/05 05:35:49;;;;;;;7.00;4.15;;;;;;;21.05;78.96;100127.19;5030143;28;20040;-79
2021/08/05 05:38:15;;;;;;;4.50;3.45;;;;;;;21.44;78.45;100124.47;4997916;28;20077;-79
2021/08/05 05:40:42;;;;;;;12.27;4.55;;;;;;;21.78;78.10;100123.69;5032883;28;20041;-80
2021/08/05 05:43:09;;;;;;;6.47;3.40;;;;;;;22.06;76.69;100110.81;5032456;28;20132;-82
2021/08/05 05:45:36;;;;;;;7.55;3.45;;;;;;;22.92;75.48;100126.59;5031613;28;20615;-80
2021/08/05 05:48:03;;;;;;;6.20;3.33;;;;;;;24.25;74.50;100111.94;5030960;28;20068;-83
2021/08/05 05:50:31;;;;;;;7.32;3.22;;;;;;;25.86;72.61;100099.84;5032015;28;20045;-80
2021/08/05 05:52:58;;;;;;;8.38;2.90;;;;;;;27.42;71.62;100087.06;5034677;28;20037;-79
2021/08/05 05:55:24;;;;;;;11.20;3.50;;;;;;;28.82;70.06;100079.00;5036502;28;20065;-80
2021/08/05 05:57:50;;;;;;;6.63;3.25;;;;;;;30.30;67.82;100091.69;5040919;28;20071;-76
2021/08/05 06:00:17;;;;;;;8.90;3.45;;;;;;;31.32;66.42;100074.59;5023778;28;20064;-80
2021/08/05 06:02:43;;;;;;;5.82;3.33;;;;;;;32.32;64.13;100062.66;5037955;28;20136;-81
2021/08/05 06:05:10;;;;;;;7.78;2.70;;;;;;;33.30;62.67;100045.88;5015377;28;20029;-78
2021/08/05 06:07:56;;;;;;;13.98;3.58;;;;;;;34.16;57.95;100063.16;5031286;28;20041;-80
2021/08/05 06:10:22;;;;;;;8.48;3.40;;;;;;;34.41;57.40;100063.25;5031079;28;20140;-79
2021/08/05 06:12:49;;;;;;;7.30;3.30;;;;;;;35.02;55.32;100040.69;5014767;28;20061;-81
2021/08/05 06:15:16;;;;;;;11.88;3.67;;;;;;;36.05;54.15;100046.53;5031335;28;20052;-79
2021/08/05 06:17:43;;;;;;;9.88;4.22;;;;;;;36.41;53.73;100046.03;5013746;28;20084;-79
2021/08/05 06:20:11;;;;;;;6.95;4.35;;;;;;;36.73;51.71;100052.31;5001300;28;20064;-79
2021/08/05 06:22:37;;;;;;;7.53;3.55;;;;;;;37.34;54.08;100040.69;5016760;28;20526;-80
2021/08/05 06:25:04;;;;;;;9.40;3.60;;;;;;;38.51;58.31;100035.72;5034025;28;20033;-80
2021/08/05 06:27:31;;;;;;;5.07;3.08;;;;;;;39.24;56.83;100038.34;5028402;28;20446;-80
2021/08/05 06:29:58;;;;;;;6.78;3.15;;;;;;;39.08;54.38;100046.78;5015554;28;20068;-78
2021/08/05 06:32:25;;;;;;;4.95;3.10;;;;;;;39.24;50.72;100051.94;5015822;28;20053;-79
2021/08/05 06:34:51;;;;;;;3.90;2.88;;;;;;;39.36;49.95;100055.00;5013424;28;20042;-79
2021/08/05 06:37:17;;;;;;;5.25;2.65;;;;;;;40.10;49.41;100060.94;5012383;28;20037;-77
2021/08/05 06:39:43;;;;;;;4.15;2.92;;;;;;;41.04;50.37;100042.19;5010811;28;20413;-78
2021/08/05 06:42:09;;;;;;;3.67;3.22;;;;;;;41.63;49.06;100055.22;5011269;28;20034;-80
2021/08/05 06:44:36;;;;;;;5.75;2.70;;;;;;;42.38;48.78;100043.06;5012904;28;20053;-81
2021/08/05 06:47:05;;;;;;;4.70;2.67;;;;;;;42.42;46.84;100052.50;5012881;28;20537;-79
2021/08/05 06:49:33;;;;;;;4.82;2.33;;;;;;;42.58;45.99;100052.00;4996035;28;20042;-80
2021/08/05 06:52:11;;;;;;;2.53;2.20;;;;;;;43.25;43.76;100044.41;5028668;28;20053;-78
2021/08/05 06:54:37;;;;;;;3.80;2.28;;;;;;;44.00;39.44;100045.34;5032148;28;20051;-78
2021/08/05 06:57:03;;;;;;;2.90;2.38;;;;;;;44.22;36.79;100045.75;5031990;28;20040;-81
2021/08/05 06:59:29;;;;;;;2.63;2.17;;;;;;;44.54;35.17;100045.53;5031701;28;20067;-80
2021/08/05 07:02:01;;;;;;;2.42;1.92;;;;;;;44.85;33.28;100038.16;5037133;28;20568;-80
2021/08/05 07:04:27;;;;;;;2.47;1.90;;;;;;;45.22;32.93;100039.88;5039599;28;20032;-80
2021/08/05 07:06:54;;;;;;;3.03;2.13;;;;;;;45.55;32.49;100025.56;5051945;28;20053;-77
2021/08/05 07:09:20;;;;;;;4.75;2.50;;;;;;;45.76;31.20;100014.22;5006446;28;20037;-78
2021/08/05 07:11:46;;;;;;;3.90;2.05;;;;;;;44.81;28.56;100023.22;5030334;28;20292;-81
2021/08/05 07:14:12;;;;;;;2.50;1.95;;;;;;;45.32;29.98;100026.41;5033699;28;20037;-80
2021/08/05 07:16:38;;;;;;;2.50;1.65;;;;;;;46.06;29.51;100019.53;5033925;28;20072;-79
2021/08/05 07:19:04;;;;;;;2.83;2.25;;;;;;;46.85;29.87;100031.75;5014063;28;20103;-80
2021/08/05 07:21:30;;;;;;;2.15;1.73;;;;;;;47.09;28.54;100025.25;5031266;28;20536;-79
2021/08/05 07:23:56;;;;;;;2.75;1.92;;;;;;;47.24;27.42;100016.41;4998897;28;20061;-82
2021/08/05 07:26:23;;;;;;;1.80;1.70;;;;;;;47.76;25.01;100029.00;5032540;28;20558;-83
2021/08/05 07:28:58;;;;;;;2.70;1.90;;;;;;;48.33;22.93;100016.78;5034134;28;20045;-81
2021/08/05 07:31:24;;;;;;;2.97;1.70;;;;;;;48.10;21.63;100024.22;5032598;28;20053;-79
2021/08/05 07:33:52;;;;;;;1.95;1.70;;;;;;;48.27;20.70;100017.78;5034158;28;20045;-82
2021/08/05 07:36:18;;;;;;;2.13;1.92;;;;;;;48.71;19.60;100022.38;5033809;28;20041;-81
2021/08/05 07:38:44;;;;;;;2.95;2.00;;;;;;;49.41;19.15;100007.72;5032249;28;20076;-81
2021/08/05 07:41:11;;;;;;;3.75;1.95;;;;;;;50.09;18.43;100000.53;5029807;28;20041;-78
2021/08/05 07:43:37;;;;;;;2.20;2.00;;;;;;;50.42;17.33;100009.50;5028420;28;20081;-80
2021/08/05 07:46:03;;;;;;;3.92;1.77;;;;;;;49.85;17.43;100004.63;5029213;28;20037;-79
2021/08/05 07:48:29;;;;;;;2.92;2.08;;;;;;;48.58;17.30;100012.56;5029324;28;20402;-82
2021/08/05 07:50:55;;;;;;;4.35;1.70;;;;;;;47.14;16.87;100001.38;5012918;28;20094;-82
2021/08/05 07:53:21;;;;;;;3.00;1.58;;;;;;;45.62;17.26;100006.22;5029833;28;20424;-82
2021/08/05 07:55:47;;;;;;;2.35;1.70;;;;;;;45.10;17.76;99987.72;5030170;28;20140;-80
2021/08/05 07:58:14;;;;;;;2.25;1.80;;;;;;;44.64;18.51;99998.34;5030177;28;20044;-79
2021/08/05 08:00:39;;;;;;;1.77;1.67;;;;;;;44.87;18.61;99983.91;5031034;28;20045;-81
2021/08/05 08:03:08;;;;;;;1.58;1.42;;;;;;;45.70;18.89;99994.88;5037581;28;20091;-80
2021/08/05 08:05:34;;;;;;;2.70;1.90;;;;;;;45.81;17.84;99984.94;5034752;28;20044;-78
2021/08/05 08:08:00;;;;;;;3.40;1.60;;;;;;;46.51;17.42;99987.69;5019718;28;20126;-79
2021/08/05 08:10:26;;;;;;;1.63;1.45;;;;;;;46.75;17.10;99974.59;5034128;28;20041;-79
2021/08/05 08:12:53;;;;;;;2.85;1.70;;;;;;;45.85;17.55;99990.78;5033647;28;20037;-80
2021/08/05 08:15:24;;;;;;;4.43;1.95;;;;;;;43.92;16.90;99978.84;5031587;28;20033;-79
2021/08/05 08:17:50;;;;;;;2.00;1.50;;;;;;;42.51;18.61;99980.09;5015677;28;20037;-76
2021/08/05 08:20:17;;;;;;;3.75;1.88;;;;;;;40.65;19.60;99994.75;5032161;28;20042;-79
2021/08/05 08:22:43;;;;;;;2.58;1.40;;;;;;;38.97;20.06;99991.88;5017545;28;20069;-76
2021/08/05 08:25:11;;;;;;;1.88;1.77;;;;;;;38.18;20.76;99987.22;5034478;28;20061;-79
2021/08/05 08:27:38;;;;;;;1.63;1.40;;;;;;;37.33;21.94;99990.19;5035586;28;20041;-80
2021/08/05 08:30:07;;;;;;;2.85;1.85;;;;;;;37.16;22.30;100003.06;5036608;28;20049;-77
2021/08/05 08:32:33;;;;;;;2.88;1.90;;;;;;;36.50;22.49;99993.53;5015387;28;20053;-79
2021/08/05 08:34:59;;;;;;;3.53;1.83;;;;;;;36.07;23.06;99995.75;5033261;28;20041;-79
2021/08/05 08:37:26;;;;;;;3.40;1.70;;;;;;;36.09;23.52;99985.56;5032887;28;20040;-79
2021/08/05 08:39:52;;;;;;;3.33;1.50;;;;;;;36.08;24.25;99986.63;5016570;28;20101;-79
2021/08/05 08:42:18;;;;;;;4.78;1.60;;;;;;;37.76;23.45;99986.88;5019860;28;20520;-77
2021/08/05 08:44:45;;;;;;;3.28;1.70;;;;;;;39.84;21.94;99985.41;5007504;28;20045;-81
2021/08/05 08:47:12;;;;;;;2.78;1.50;;;;;;;40.81;19.97;99953.44;5039522;28;20041;-80
2021/08/05 08:49:43;;;;;;;2.65;1.50;;;;;;;41.05;20.13;99988.50;5038632;28;20565;-79
2021/08/05 08:52:10;;;;;;;2.58;1.58;;;;;;;41.74;18.82;99974.56;5022745;28;20136;-80
2021/08/05 08:54:43;;;;;;;4.10;1.80;;;;;;;42.74;19.42;99970.47;5039690;28;20056;-79
2021/08/05 08:57:16;;;;;;;1.60;1.50;;;;;;;44.17;18.28;99968.88;5039522;28;20033;-79
2021/08/05 08:59:45;;;;;;;2.13;1.50;;;;;;;45.02;18.42;99966.97;5039298;28;20081;-76
2021/08/05 09:02:12;;;;;;;6.20;1.80;;;;;;;45.59;17.99;99962.75;5009602;28;20029;-78
2021/08/05 09:04:40;;;;;;;2.78;1.70;;;;;;;45.23;16.40;99943.56;5009967;28;20037;-79
2021/08/05 09:07:07;;;;;;;2.17;1.80;;;;;;;43.62;16.33;99970.53;5024632;28;20474;-82
2021/08/05 09:09:33;;;;;;;2.30;2.03;;;;;;;43.91;17.38;99959.91;5034915;28;20018;-80
2021/08/05 09:11:59;;;;;;;1.65;1.55;;;;;;;44.68;17.42;99951.06;5057279;28;20035;-80
2021/08/05 09:14:46;;;;;;;3.88;1.98;;;;;;;42.66;16.66;99957.91;5035308;28;20061;-80
2021/08/05 09:17:21;;;;;;;1.75;1.40;;;;;;;41.96;17.76;99939.63;5022774;28;20057;-79
2021/08/05 09:19:48;;;;;;;4.07;1.55;;;;;;;41.24;17.86;99945.88;5039017;28;20087;-79
2021/08/05 09:22:28;;;;;;;3.30;1.75;;;;;;;39.92;17.70;99956.13;5038307;28;20421;-79
2021/08/05 09:24:54;;;;;;;3.38;1.90;;;;;;;39.20;19.24;99949.16;5034917;28;20095;-78
2021/08/05 09:27:34;;;;;;;3.28;1.70;;;;;;;38.32;19.72;99953.75;5006239;28;20041;-80
2021/08/05 09:30:03;;;;;;;3.83;1.60;;;;;;;37.70;20.63;99944.22;5039570;28;20097;-81
2021/08/05 09:32:29;;;;;;;4.45;1.90;;;;;;;37.77;20.98;99921.56;5042183;28;20068;-82
2021/08/05 09:35:07;;;;;;;4.82;1.80;;;;;;;38.37;20.68;99939.63;5042983;28;20029;-80
2021/08/05 09:37:40;;;;;;;2.28;1.50;;;;;;;38.12;20.20;99923.69;5044381;28;20137;-79
2021/08/05 09:40:17;;;;;;;2.45;1.70;;;;;;;38.01;20.23;99940.44;5043136;28;20088;-78
2021/08/05 09:42:55;;;;;;;5.85;1.70;;;;;;;38.41;20.37;99925.47;5038511;28;20041;-80
2021/08/05 09:45:39;;;;;;;2.25;1.77;;;;;;;38.20;20.53;99922.72;5036198;28;20046;-80
2021/08/05 09:48:06;;;;;;;2.03;1.70;;;;;;;36.98;20.51;99938.31;5037411;28;20038;-79
2021/08/05 09:50:33;;;;;;;2.53;1.73;;;;;;;35.48;21.36;99938.25;5036405;28;20041;-80
2021/08/05 09:53:10;;;;;;;5.63;1.67;;;;;;;34.61;22.13;99947.72;5035688;28;20682;-80
2021/08/05 09:55:40;;;;;;;3.83;1.75;;;;;;;33.99;22.44;99931.84;5032544;28;20048;-81
2021/08/05 09:58:08;;;;;;;2.10;1.70;;;;;;;33.26;22.90;99937.47;4998652;28;20065;-79
2021/08/05 10:00:44;;;;;;;5.07;1.52;;;;;;;32.56;23.73;99940.91;4998770;28;20144;-77
2021/08/05 10:03:10;;;;;;;2.65;1.60;;;;;;;32.17;24.16;99949.22;5016031;28;20097;-77
2021/08/05 10:05:37;;;;;;;4.60;1.60;;;;;;;31.75;24.95;99937.97;5017362;28;20042;-77
2021/08/05 10:08:03;;;;;;;2.33;1.70;;;;;;;31.32;25.08;99913.34;5015454;28;20040;-80
2021/08/05 10:10:51;;;;;;;3.42;1.55;;;;;;;31.20;25.99;99950.28;5021038;28;20026;-77
2021/08/05 10:13:34;;;;;;;2.83;1.60;;;;;;;30.67;26.66;99948.00;5023711;28;20080;-77
2021/08/05 10:16:05;;;;;;;3.97;1.70;;;;;;;30.31;27.19;99951.19;5025053;28;20184;-81
2021/08/05 10:18:36;;;;;;;2.25;1.60;;;;;;;29.70;27.18;99928.81;5010277;28;20045;-75
2021/08/05 10:21:14;;;;;;;2.83;1.38;;;;;;;29.44;27.96;99934.59;5010828;28;20048;-77
2021/08/05 10:23:44;;;;;;;2.58;1.30;;;;;;;29.01;27.81;99912.31;5010837;28;20046;-75
2021/08/05 10:26:11;;;;;;;3.80;2.13;;;;;;;28.83;28.13;99918.22;5011286;28;20038;-75
2021/08/05 10:28:38;;;;;;;3.35;1.50;;;;;;;28.95;28.48;99950.31;5024765;28;20041;-76
2021/08/05 10:31:07;;;;;;;2.38;1.70;;;;;;;28.59;29.12;99941.66;5030213;28;20049;-76
2021/08/05 10:33:34;;;;;;;2.83;1.30;;;;;;;28.46;29.96;99948.03;5030246;28;20160;-74
2021/08/05 10:36:02;;;;;;;3.47;1.80;;;;;;;28.34;30.37;99938.34;5029938;28;20056;-75
2021/08/05 10:38:29;;;;;;;2.63;1.67;;;;;;;28.22;31.09;99943.72;5030153;28;20041;-76
2021/08/05 10:41:00;;;;;;;4.32;1.77;;;;;;;28.19;31.27;99937.75;5029212;28;20453;-77
2021/08/05 10:43:26;;;;;;;9.02;1.98;;;;;;;27.86;31.13;99931.44;5030013;28;20046;-75
2021/08/05 10:45:53;;;;;;;2.60;1.63;;;;;;;27.74;31.55;99950.16;5012493;28;20048;-77
2021/08/05 10:48:20;;;;;;;4.53;1.92;;;;;;;27.60;31.39;99942.34;5029356;28;20073;-76
2021/08/05 10:50:47;;;;;;;6.05;1.88;;;;;;;27.48;32.09;99936.16;5028921;28;20037;-76
2021/08/05 10:53:31;;;;;;;3.85;1.83;;;;;;;27.59;32.10;99935.31;5028376;28;20048;-74
2021/08/05 10:56:18;;;;;;;3.70;1.90;;;;;;;27.43;32.41;99941.81;5011315;28;20049;-76
2021/08/05 10:59:14;;;;;;;3.80;1.50;;;;;;;27.26;32.77;99935.13;5016284;28;20037;-76
2021/08/05 11:01:47;;;;;;;1.60;1.50;;;;;;;26.99;33.31;99928.28;5028169;28;20136;-76
2021/08/05 11:04:34;;;;;;;3.25;1.73;;;;;;;26.93;33.34;99939.41;5029675;28;20041;-77
2021/08/05 11:07:32;;;;;;;2.25;1.50;;;;;;;26.82;33.73;99944.69;5028930;28;20782;-76
2021/08/05 11:10:14;;;;;;;2.28;1.80;;;;;;;26.67;33.81;99936.00;5013410;28;20052;-77
2021/08/05 11:12:50;;;;;;;2.20;1.77;;;;;;;26.49;34.25;99936.38;5030322;28;20052;-77
2021/08/05 11:15:33;;;;;;;5.07;2.28;;;;;;;26.36;34.92;99936.44;5030110;28;20052;-76
2021/08/05 11:18:14;;;;;;;2.88;1.50;;;;;;;26.26;35.78;99935.41;5030409;28;20041;-75
2021/08/05 11:20:51;;;;;;;2.28;1.60;;;;;;;26.11;36.88;99932.88;5033357;28;20052;-74
2021/08/05 11:23:30;;;;;;;3.05;1.77;;;;;;;26.02;37.22;99936.19;5013570;28;20045;-76
2021/08/05 11:25:56;;;;;;;3.60;2.65;;;;;;;25.97;37.91;99938.31;5027691;28;20041;-76
2021/08/05 11:28:24;;;;;;;2.40;1.75;;;;;;;25.67;38.03;99900.41;5028149;28;20053;-76
2021/08/05 11:30:59;;;;;;;3.30;2.00;;;;;;;25.65;38.32;99934.31;5028031;28;20574;-76
2021/08/05 11:33:40;;;;;;;2.35;1.92;;;;;;;25.55;39.38;99936.75;4995594;28;20496;-77